createdAt,value
2022-08-18T00:01:24.525Z,49.30
2022-08-18T00:03:56.064Z,49.50
2022-08-18T00:06:29.547Z,49.50
2022-08-18T00:09:00.294Z,49.70
2022-08-18T00:11:41.044Z,49.70
2022-08-18T00:14:21.429Z,49.90
2022-08-18T00:16:53.360Z,50.00
2022-08-18T00:19:45.582Z,50.00
2022-08-18T00:22:15.135Z,50.20
2022-08-18T00:24:47.639Z,50.20
2022-08-18T00:27:21.581Z,50.30
2022-08-18T00:29:51.175Z,50.20
2022-08-18T00:32:24.144Z,50.80
2022-08-18T00:34:53.713Z,50.30
2022-08-18T00:37:22.082Z,50.50
2022-08-18T00:39:53.030Z,50.50
2022-08-18T00:42:27.477Z,50.70
2022-08-18T00:45:02.784Z,50.70
2022-08-18T00:47:41.327Z,50.70
2022-08-18T00:50:39.432Z,50.70
2022-08-18T00:53:17.752Z,50.90
2022-08-18T00:55:53.998Z,50.80
2022-08-18T00:58:35.726Z,50.80
2022-08-18T01:01:06.970Z,51.00
2022-08-18T01:03:39.753Z,51.00
2022-08-18T01:06:32.618Z,51.10
2022-08-18T01:09:00.271Z,51.30
2022-08-18T01:11:28.590Z,51.70
2022-08-18T01:13:55.731Z,51.30
2022-08-18T01:16:53.814Z,51.40
2022-08-18T01:19:45.984Z,51.60
2022-08-18T01:22:58.304Z,51.60
2022-08-18T01:25:51.386Z,52.00
2022-08-18T01:28:20.687Z,51.80
2022-08-18T01:30:55.716Z,51.90
2022-08-18T01:33:22.732Z,52.20
2022-08-18T01:35:57.432Z,52.20
2022-08-18T01:38:26.178Z,52.20
2022-08-18T01:41:22.453Z,52.40
2022-08-18T01:43:41.451Z,52.50
2022-08-18T01:46:08.972Z,52.60
2022-08-18T01:48:38.013Z,52.70
2022-08-18T01:51:08.054Z,52.90
2022-08-18T01:53:36.524Z,53.00
2022-08-18T01:56:05.704Z,53.20
2022-08-18T01:58:34.813Z,53.30
2022-08-18T02:01:02.446Z,53.30
2022-08-18T02:03:35.967Z,53.40
2022-08-18T02:06:07.202Z,53.80
2022-08-18T02:08:35.005Z,53.80
2022-08-18T02:11:03.538Z,53.90
2022-08-18T02:13:31.204Z,54.00
2022-08-18T02:15:58.148Z,54.20
2022-08-18T02:18:47.245Z,54.20
2022-08-18T02:21:19.172Z,54.50
2022-08-18T02:23:49.231Z,54.60
2022-08-18T02:26:21.167Z,54.70
2022-08-18T02:28:48.301Z,54.90
2022-08-18T02:31:19.636Z,55.00
2022-08-18T02:33:52.064Z,55.30
2022-08-18T02:36:21.078Z,55.30
2022-08-18T02:38:54.870Z,55.40
2022-08-18T02:41:29.898Z,55.50
2022-08-18T02:43:58.651Z,55.60
2022-08-18T02:46:30.130Z,55.70
2022-08-18T02:49:01.743Z,55.80
2022-08-18T02:51:28.950Z,55.80
2022-08-18T02:53:59.771Z,55.90
2022-08-18T02:56:40.504Z,56.00
2022-08-18T02:59:16.557Z,56.00
2022-08-18T03:01:48.176Z,56.10
2022-08-18T03:04:23.007Z,56.10
2022-08-18T03:06:56.308Z,56.20
2022-08-18T03:09:23.445Z,56.30
2022-08-18T03:11:50.370Z,56.40
2022-08-18T03:14:17.484Z,56.40
2022-08-18T03:16:54.590Z,56.50
2022-08-18T03:19:28.701Z,56.60
2022-08-18T03:22:03.073Z,56.90
2022-08-18T03:24:32.329Z,56.80
2022-08-18T03:27:05.905Z,56.90
2022-08-18T03:29:34.266Z,57.00
2022-08-18T03:32:04.540Z,57.10
2022-08-18T03:34:32.394Z,57.20
2022-08-18T03:37:00.995Z,57.30
2022-08-18T03:39:29.109Z,57.40
2022-08-18T03:42:00.982Z,57.60
2022-08-18T03:44:33.027Z,57.70
2022-08-18T03:47:02.970Z,57.80
2022-08-18T03:49:33.807Z,57.90
2022-08-18T03:52:01.636Z,58.00
2022-08-18T03:54:33.443Z,58.10
2022-08-18T03:57:00.580Z,58.20
2022-08-18T03:59:30.738Z,58.30
2022-08-18T04:01:57.841Z,58.40
2022-08-18T04:04:27.632Z,58.40
2022-08-18T04:07:17.510Z,58.60
2022-08-18T04:09:45.711Z,58.70
2022-08-18T04:12:16.552Z,58.70
2022-08-18T04:14:49.187Z,58.90
2022-08-18T04:17:25.117Z,59.00
2022-08-18T04:19:54.789Z,59.10
2022-08-18T04:22:23.054Z,59.10
2022-08-18T04:24:50.632Z,59.20
2022-08-18T04:27:20.411Z,59.30
2022-08-18T04:29:47.923Z,59.30
2022-08-18T04:32:15.140Z,59.40
2022-08-18T04:34:42.408Z,59.50
2022-08-18T04:37:09.846Z,59.50
2022-08-18T04:39:37.736Z,59.60
2022-08-18T04:42:06.084Z,59.70
2022-08-18T04:44:34.689Z,59.70
2022-08-18T04:47:02.296Z,59.60
2022-08-18T04:49:30.287Z,60.30
2022-08-18T04:52:36.485Z,59.70
2022-08-18T04:55:05.894Z,59.60
2022-08-18T04:57:34.742Z,59.60
2022-08-18T05:00:05.150Z,59.50
2022-08-18T05:02:33.029Z,59.50
2022-08-18T05:05:04.388Z,59.60
2022-08-18T05:07:31.612Z,59.40
2022-08-18T05:09:58.583Z,60.00
2022-08-18T05:12:26.639Z,59.40
2022-08-18T05:14:56.683Z,59.30
2022-08-18T05:17:29.079Z,59.10
2022-08-18T05:19:58.872Z,59.00
2022-08-18T05:22:30.479Z,58.90
2022-08-18T05:24:58.878Z,58.80
2022-08-18T05:27:25.774Z,58.50
2022-08-18T05:29:52.723Z,58.60
2022-08-18T05:32:41.831Z,58.30
2022-08-18T05:35:31.802Z,58.30
2022-08-18T05:38:18.013Z,58.20
2022-08-18T05:40:49.901Z,58.00
2022-08-18T05:43:18.255Z,57.90
2022-08-18T05:45:45.301Z,57.60
2022-08-18T05:48:14.222Z,57.50
2022-08-18T05:50:41.436Z,57.50
2022-08-18T05:53:14.667Z,57.20
2022-08-18T05:56:19.999Z,57.10
2022-08-18T05:58:52.139Z,57.00
2022-08-18T06:01:25.794Z,56.80
2022-08-18T06:04:02.000Z,56.70
2022-08-18T06:06:31.309Z,56.50
2022-08-18T06:09:33.248Z,56.50
2022-08-18T06:12:17.424Z,56.40
2022-08-18T06:14:44.717Z,56.20
2022-08-18T06:17:43.803Z,56.10
2022-08-18T06:20:28.386Z,55.70
2022-08-18T06:23:32.868Z,55.20
2022-08-18T06:26:10.572Z,55.10
2022-08-18T06:29:25.138Z,54.90
2022-08-18T06:32:24.504Z,54.40
2022-08-18T06:35:04.432Z,53.90
2022-08-18T06:37:57.253Z,53.60
2022-08-18T06:40:24.807Z,53.10
2022-08-18T06:42:51.790Z,53.10
2022-08-18T06:45:24.806Z,52.50
2022-08-18T06:48:36.101Z,52.20
2022-08-18T06:51:07.465Z,51.60
2022-08-18T06:54:00.364Z,51.30
2022-08-18T06:56:39.410Z,50.60
2022-08-18T06:59:27.690Z,50.20
2022-08-18T07:02:20.034Z,49.70
2022-08-18T07:05:05.728Z,49.70
2022-08-18T07:07:40.862Z,49.00
2022-08-18T07:10:14.629Z,48.90
2022-08-18T07:13:12.731Z,48.50
2022-08-18T07:15:40.601Z,48.20
2022-08-18T07:18:10.109Z,48.20
2022-08-18T07:20:57.949Z,47.80
2022-08-18T07:23:38.549Z,47.40
2022-08-18T07:26:19.154Z,47.30
2022-08-18T07:28:49.992Z,46.80
2022-08-18T07:31:40.276Z,46.60
2022-08-18T07:34:47.922Z,45.80
2022-08-18T07:37:42.329Z,45.60
2022-08-18T07:40:36.067Z,45.80
2022-08-18T07:43:11.511Z,45.20
2022-08-18T07:45:44.485Z,45.10
2022-08-18T07:48:41.310Z,44.90
2022-08-18T07:51:43.383Z,44.40
2022-08-18T07:55:00.121Z,44.00
2022-08-18T07:57:45.220Z,43.70
2022-08-18T08:00:55.369Z,43.30
2022-08-18T08:03:35.390Z,43.30
2022-08-18T08:06:20.568Z,43.20
2022-08-18T08:09:05.925Z,43.10
2022-08-18T08:11:46.986Z,42.80
2022-08-18T08:14:16.661Z,42.80
2022-08-18T08:16:50.127Z,42.70
2022-08-18T08:19:59.417Z,42.50
2022-08-18T08:23:17.856Z,42.00
2022-08-18T08:25:52.588Z,42.00
2022-08-18T08:28:52.474Z,42.20
2022-08-18T08:31:42.448Z,41.80
2022-08-18T08:34:26.031Z,41.80
2022-08-18T08:37:04.997Z,41.80
2022-08-18T08:39:57.801Z,41.50
2022-08-18T08:43:01.349Z,41.10
2022-08-18T08:45:37.000Z,40.90
2022-08-18T08:48:21.311Z,40.80
2022-08-18T08:51:06.322Z,40.20
2022-08-18T08:53:43.861Z,40.00
2022-08-18T08:56:16.566Z,39.60
2022-08-18T08:58:49.912Z,39.30
2022-08-18T09:01:44.275Z,39.10
2022-08-18T09:05:09.981Z,38.30
2022-08-18T09:08:10.910Z,37.80
2022-08-18T09:10:59.246Z,38.20
2022-08-18T09:13:51.946Z,37.60
2022-08-18T09:16:24.591Z,37.00
2022-08-18T09:19:16.333Z,36.50
2022-08-18T09:22:37.254Z,35.20
2022-08-18T09:25:29.698Z,33.50
2022-08-18T09:28:16.417Z,32.20
2022-08-18T09:31:02.344Z,31.30
2022-08-18T09:33:42.335Z,30.60
2022-08-18T09:36:25.943Z,32.20
2022-08-18T09:43:13.069Z,29.10
2022-08-18T09:45:47.250Z,28.40
2022-08-18T09:48:20.778Z,27.80
2022-08-18T09:51:23.548Z,27.00
2022-08-18T09:53:53.780Z,26.60
2022-08-18T09:56:53.807Z,26.00
2022-08-18T09:59:45.378Z,25.10
2022-08-18T10:02:36.827Z,24.80
2022-08-18T10:05:20.239Z,24.50
2022-08-18T10:08:07.220Z,24.00
2022-08-18T10:14:04.826Z,23.50
2022-08-18T10:17:44.625Z,23.00
2022-08-18T10:20:52.361Z,22.70
2022-08-18T10:24:15.178Z,22.30
2022-08-18T10:26:54.821Z,21.90
2022-08-18T10:29:24.773Z,21.80
2022-08-18T10:31:58.546Z,22.70
2022-08-18T10:34:52.343Z,21.60
2022-08-18T10:37:42.213Z,20.30
2022-08-18T10:40:13.230Z,20.10
2022-08-18T10:42:59.932Z,20.00
2022-08-18T10:45:39.016Z,19.30
2022-08-18T10:48:24.329Z,18.80
2022-08-18T10:51:11.629Z,18.70
2022-08-18T10:53:55.443Z,18.30
2022-08-18T10:57:23.157Z,18.00
2022-08-18T11:00:02.234Z,18.00
2022-08-18T11:03:40.054Z,17.20
2022-08-18T11:06:17.952Z,17.00
2022-08-18T11:08:55.042Z,16.50
2022-08-18T11:11:33.760Z,16.20
2022-08-18T11:14:54.805Z,16.00
2022-08-18T11:18:06.418Z,15.90
2022-08-18T11:20:40.253Z,15.50
2022-08-18T11:23:17.482Z,15.40
2022-08-18T11:25:45.217Z,15.50
2022-08-18T11:28:30.294Z,15.70
2022-08-18T11:30:59.669Z,15.40
2022-08-18T11:33:28.160Z,15.60
2022-08-18T11:35:58.150Z,15.50
2022-08-18T11:41:26.366Z,15.40
2022-08-18T11:44:20.960Z,15.30
2022-08-18T11:46:52.007Z,15.70
2022-08-18T11:49:33.349Z,15.20
2022-08-18T11:52:19.843Z,15.00
2022-08-18T11:55:14.722Z,14.70
2022-08-18T12:00:47.928Z,14.40
2022-08-18T12:03:39.548Z,14.50
2022-08-18T12:06:29.843Z,15.00
2022-08-18T12:09:07.154Z,14.50
2022-08-18T12:11:41.225Z,14.80
2022-08-18T12:14:32.589Z,14.70
2022-08-18T12:17:02.953Z,14.80
2022-08-18T12:19:34.410Z,14.90
2022-08-18T12:22:14.276Z,15.10
2022-08-18T12:24:41.392Z,15.50
2022-08-18T12:27:12.247Z,15.70
2022-08-18T12:29:53.920Z,15.70
2022-08-18T12:32:56.367Z,15.90
2022-08-18T12:35:13.011Z,16.10
2022-08-18T12:38:08.270Z,16.20
2022-08-18T12:40:34.068Z,16.00
2022-08-18T12:43:01.209Z,16.00
2022-08-18T12:45:30.805Z,15.90
2022-08-18T12:47:59.906Z,15.70
2022-08-18T12:50:31.416Z,15.50
2022-08-18T12:53:02.512Z,15.30
2022-08-18T12:55:35.153Z,15.10
2022-08-18T12:58:05.331Z,14.90
2022-08-18T13:00:33.631Z,14.90
2022-08-18T13:03:01.221Z,14.90
2022-08-18T13:05:29.812Z,14.60
2022-08-18T13:08:04.626Z,14.80
2022-08-18T13:10:45.194Z,15.00
2022-08-18T13:13:17.078Z,14.80
2022-08-18T13:15:58.356Z,15.00
2022-08-18T13:18:27.314Z,14.80
2022-08-18T13:21:00.149Z,14.80
2022-08-18T13:23:28.418Z,14.60
2022-08-18T13:25:59.321Z,14.60
2022-08-18T13:28:33.470Z,14.70
2022-08-18T13:31:05.356Z,14.90
2022-08-18T13:33:34.801Z,15.30
2022-08-18T13:36:20.544Z,14.80
2022-08-18T13:38:54.708Z,14.60
2022-08-18T13:41:23.331Z,14.60
2022-08-18T13:43:50.594Z,14.70
2022-08-18T13:46:24.404Z,14.90
2022-08-18T13:48:59.893Z,14.90
2022-08-18T13:51:29.435Z,15.20
2022-08-18T13:54:17.917Z,15.30
2022-08-18T13:56:51.994Z,15.60
2022-08-18T13:59:23.645Z,15.80
2022-08-18T14:01:53.143Z,16.40
2022-08-18T14:04:23.048Z,16.10
2022-08-18T14:06:59.156Z,16.30
2022-08-18T14:09:37.115Z,16.50
2022-08-18T14:12:22.559Z,16.90
2022-08-18T14:14:55.320Z,17.60
2022-08-18T14:17:25.214Z,18.20
2022-08-18T14:20:21.551Z,18.60
2022-08-18T14:23:11.789Z,19.30
2022-08-18T14:25:59.864Z,19.80
2022-08-18T14:28:29.417Z,20.10
2022-08-18T14:30:58.977Z,20.40
2022-08-18T14:33:49.406Z,20.70
2022-08-18T14:36:17.397Z,21.00
2022-08-18T14:38:45.324Z,21.20
2022-08-18T14:41:14.171Z,21.10
2022-08-18T14:44:10.895Z,21.20
2022-08-18T14:46:33.095Z,21.30
2022-08-18T14:49:03.982Z,21.40
2022-08-18T14:51:33.618Z,21.20
2022-08-18T14:54:02.188Z,20.90
2022-08-18T14:56:29.397Z,20.50
2022-08-18T14:58:56.939Z,20.10
2022-08-18T15:01:26.573Z,19.70
2022-08-18T15:03:54.399Z,19.80
2022-08-18T15:06:23.078Z,20.00
2022-08-18T15:08:57.022Z,20.20
2022-08-18T15:11:24.957Z,20.50
2022-08-18T15:13:55.020Z,20.80
2022-08-18T15:16:27.131Z,21.00
2022-08-18T15:19:00.366Z,21.20
2022-08-18T15:21:47.841Z,21.40
2022-08-18T15:24:39.785Z,21.70
2022-08-18T15:27:10.407Z,22.10
2022-08-18T15:29:46.623Z,22.50
2022-08-18T15:32:15.240Z,22.90
2022-08-18T15:34:46.640Z,23.20
2022-08-18T15:37:20.301Z,23.70
2022-08-18T15:40:21.720Z,23.70
2022-08-18T15:43:04.126Z,23.90
2022-08-18T15:45:43.281Z,24.00
2022-08-18T15:48:26.067Z,24.40
2022-08-18T15:50:53.013Z,24.40
2022-08-18T15:53:25.492Z,24.60
2022-08-18T15:55:57.354Z,25.00
2022-08-18T15:58:26.707Z,25.10
2022-08-18T16:00:59.067Z,25.30
2022-08-18T16:03:27.588Z,25.50
2022-08-18T16:05:56.142Z,25.80
2022-08-18T16:08:25.607Z,26.00
2022-08-18T16:10:53.700Z,26.30
2022-08-18T16:13:22.116Z,26.30
2022-08-18T16:15:50.196Z,26.40
2022-08-18T16:18:21.178Z,26.60
2022-08-18T16:20:48.762Z,26.90
2022-08-18T16:23:19.861Z,27.00
2022-08-18T16:25:47.027Z,27.40
2022-08-18T16:28:13.897Z,30.60
2022-08-18T16:30:41.613Z,36.90
2022-08-18T16:33:08.768Z,40.80
2022-08-18T16:35:37.274Z,46.00
2022-08-18T16:38:09.097Z,47.30
2022-08-18T16:40:37.635Z,50.90
2022-08-18T16:43:07.224Z,54.20
2022-08-18T16:45:37.587Z,57.50
2022-08-18T16:48:07.433Z,60.30
2022-08-18T16:50:35.725Z,62.90
2022-08-18T16:53:02.620Z,65.60
2022-08-18T16:55:30.634Z,67.90
2022-08-18T16:58:16.365Z,69.60
2022-08-18T17:01:02.815Z,71.30
2022-08-18T17:03:48.258Z,72.90
2022-08-18T17:06:19.093Z,74.20
2022-08-18T17:08:47.039Z,75.70
2022-08-18T17:11:18.875Z,76.60
2022-08-18T17:13:49.727Z,78.70
2022-08-18T17:16:19.892Z,80.60
2022-08-18T17:18:48.156Z,82.10
2022-08-18T17:21:20.182Z,83.70
2022-08-18T17:23:47.895Z,85.60
2022-08-18T17:26:42.781Z,86.60
2022-08-18T17:29:22.857Z,90.20
2022-08-18T17:32:03.713Z,90.00
2022-08-18T17:34:41.950Z,91.20
2022-08-18T17:37:14.445Z,91.10
2022-08-18T17:40:02.341Z,91.00
2022-08-18T17:42:31.260Z,92.00
2022-08-18T17:45:07.642Z,92.40
2022-08-18T17:48:03.290Z,93.80
2022-08-18T17:51:00.914Z,94.20
2022-08-18T17:53:31.496Z,96.20
2022-08-18T17:56:08.081Z,95.30
2022-08-18T17:59:42.811Z,96.60
2022-08-18T18:02:31.115Z,99.90
2022-08-18T18:05:11.036Z,99.90
2022-08-18T18:07:53.116Z,99.40
2022-08-18T18:10:25.845Z,98.00
2022-08-18T18:13:24.597Z,99.40
2022-08-18T18:15:55.747Z,99.90
2022-08-18T18:18:34.292Z,99.90
2022-08-18T18:21:21.455Z,99.90
2022-08-18T18:24:14.226Z,99.90
2022-08-18T18:26:47.956Z,99.90
2022-08-18T18:29:37.391Z,99.90
2022-08-18T18:32:30.573Z,99.90
2022-08-18T18:35:23.795Z,99.90
2022-08-18T18:38:24.333Z,99.90
2022-08-18T18:41:02.455Z,99.90
2022-08-18T18:43:47.187Z,99.90
2022-08-18T18:46:29.772Z,99.90
2022-08-18T18:49:23.368Z,99.90
2022-08-18T18:51:55.970Z,99.90
2022-08-18T18:55:01.721Z,99.90
2022-08-18T18:58:15.874Z,99.90
2022-08-18T19:00:53.607Z,99.90
2022-08-18T19:03:41.410Z,99.90
2022-08-18T19:06:17.389Z,99.90
2022-08-18T19:09:06.634Z,99.90
2022-08-18T19:11:43.181Z,99.90
2022-08-18T19:14:28.437Z,99.90
2022-08-18T19:17:13.298Z,99.90
2022-08-18T19:19:59.625Z,99.90
2022-08-18T19:22:38.773Z,99.90
2022-08-18T19:25:19.526Z,99.90
2022-08-18T19:27:54.125Z,99.90
2022-08-18T19:30:22.072Z,99.90
2022-08-18T19:33:03.088Z,99.90
2022-08-18T19:35:58.716Z,99.90
2022-08-18T19:38:36.749Z,99.90
2022-08-18T19:41:39.563Z,99.90
2022-08-18T19:44:35.489Z,99.90
2022-08-18T19:47:33.617Z,99.90
2022-08-18T19:50:17.040Z,99.90
2022-08-18T19:53:34.458Z,99.90
2022-08-18T19:56:27.909Z,99.90
2022-08-18T19:59:24.074Z,99.90
2022-08-18T20:02:12.380Z,99.90
2022-08-18T20:05:20.685Z,99.90
2022-08-18T20:08:12.777Z,99.90
2022-08-18T20:11:21.298Z,99.90
2022-08-18T20:14:13.589Z,99.90
2022-08-18T20:16:45.080Z,99.90
2022-08-18T20:19:57.456Z,99.90
2022-08-18T20:22:25.059Z,99.90
2022-08-18T20:25:05.879Z,99.90
2022-08-18T20:27:42.871Z,99.90
2022-08-18T20:30:26.974Z,99.90
2022-08-18T20:33:18.125Z,99.90
2022-08-18T20:36:03.399Z,99.90
2022-08-18T20:38:53.826Z,99.90
2022-08-18T20:41:24.788Z,99.90
2022-08-18T20:44:29.504Z,99.90
2022-08-18T20:47:21.106Z,99.90
2022-08-18T20:50:23.369Z,99.90
2022-08-18T20:53:26.279Z,99.90
2022-08-18T20:56:43.926Z,99.90
2022-08-18T20:59:21.853Z,99.90
2022-08-18T21:02:07.246Z,99.90
2022-08-18T21:04:49.283Z,99.90
2022-08-18T21:08:17.739Z,99.90
2022-08-18T21:10:49.780Z,99.90
2022-08-18T21:13:41.619Z,99.90
2022-08-18T21:16:38.308Z,99.90
2022-08-18T21:19:24.999Z,99.90
2022-08-18T21:21:58.844Z,99.90
2022-08-18T21:24:43.045Z,99.90
2022-08-18T21:27:31.065Z,99.90
2022-08-18T21:30:04.570Z,99.90
2022-08-18T21:32:36.265Z,99.90
2022-08-18T21:35:26.620Z,99.90
2022-08-18T21:38:11.781Z,99.90
2022-08-18T21:40:47.263Z,99.90
2022-08-18T21:43:55.503Z,99.90
2022-08-18T21:46:30.422Z,99.90
2022-08-18T21:49:02.472Z,99.90
2022-08-18T21:51:37.122Z,99.90
2022-08-18T21:54:04.569Z,99.90
2022-08-18T21:56:36.175Z,99.70
2022-08-18T21:59:19.149Z,99.60
2022-08-18T22:01:54.484Z,99.90
2022-08-18T22:04:26.744Z,99.90
2022-08-18T22:06:59.206Z,99.40
2022-08-18T22:09:49.511Z,99.50
2022-08-18T22:12:49.395Z,99.30
2022-08-18T22:15:44.218Z,99.70
2022-08-18T22:18:17.821Z,99.60
2022-08-18T22:20:58.930Z,99.60
2022-08-18T22:23:55.750Z,99.00
2022-08-18T22:26:30.802Z,99.00
2022-08-18T22:29:07.436Z,99.40
2022-08-18T22:31:45.284Z,99.40
2022-08-18T22:34:27.158Z,98.80
2022-08-18T22:37:19.212Z,98.80
2022-08-18T22:39:54.434Z,98.60
2022-08-18T22:42:26.365Z,98.70
2022-08-18T22:44:53.657Z,98.50
2022-08-18T22:47:20.867Z,98.30
2022-08-18T22:49:48.037Z,98.30
2022-08-18T22:52:31.145Z,98.20
2022-08-18T22:55:00.587Z,98.30
2022-08-18T22:57:34.448Z,98.00
2022-08-18T23:00:12.192Z,97.80
2022-08-18T23:02:40.395Z,97.90
2022-08-18T23:05:07.828Z,97.50
2022-08-18T23:07:35.198Z,97.40
2022-08-18T23:10:03.423Z,97.30
2022-08-18T23:12:35.191Z,97.30
2022-08-18T23:15:09.842Z,97.30
2022-08-18T23:17:37.321Z,97.20
2022-08-18T23:20:08.715Z,97.10
2022-08-18T23:22:39.741Z,97.00
2022-08-18T23:25:09.453Z,97.00
2022-08-18T23:27:36.879Z,96.90
2022-08-18T23:30:05.256Z,96.80
2022-08-18T23:32:33.362Z,96.90
2022-08-18T23:35:00.821Z,96.80
2022-08-18T23:37:28.992Z,96.70
2022-08-18T23:39:56.101Z,96.80
2022-08-18T23:42:23.900Z,96.80
2022-08-18T23:44:50.829Z,97.00
2022-08-18T23:47:19.638Z,97.00
2022-08-18T23:49:46.855Z,97.00
2022-08-18T23:52:13.876Z,96.90
2022-08-18T23:54:40.985Z,97.00
2022-08-18T23:57:07.875Z,97.00
2022-08-18T23:59:34.963Z,97.00
